sensor_id;sensor_type;location;lat;lon;timestamp;pressure;altitude;pressure_sealevel;temperature;humidity
77112;BME280;66064;50.226;14.344;2023-04-24T00:00:21;98430.06;;;7.54;100.00
77112;BME280;66064;50.226;14.344;2023-04-24T00:03:07;98418.75;;;8.07;100.00
77112;BME280;66064;50.226;14.344;2023-04-24T00:05:33;98403.75;;;8.06;100.00
77112;BME280;66064;50.226;14.344;2023-04-24T00:07:59;98406.31;;;7.77;100.00
77112;BME280;66064;50.226;14.344;2023-04-24T00:10:25;98411.63;;;7.77;100.00
77112;BME280;66064;50.226;14.344;2023-04-24T00:12:51;98416.03;;;7.73;100.00
77112;BME280;66064;50.226;14.344;2023-04-24T00:15:17;98415.97;;;7.64;100.00
77112;BME280;66064;50.226;14.344;2023-04-24T00:17:43;98426.56;;;7.64;100.00
77112;BME280;66064;50.226;14.344;2023-04-24T00:20:09;98413.44;;;8.01;100.00
77112;BME280;66064;50.226;14.344;2023-04-24T00:22:36;98418.84;;;8.75;100.00
77112;BME280;66064;50.226;14.344;2023-04-24T00:25:02;98409.06;;;9.06;100.00
77112;BME280;66064;50.226;14.344;2023-04-24T00:27:28;98408.13;;;9.17;100.00
77112;BME280;66064;50.226;14.344;2023-04-24T00:29:54;98398.41;;;9.16;100.00
77112;BME280;66064;50.226;14.344;2023-04-24T00:32:20;98397.53;;;9.13;100.00
77112;BME280;66064;50.226;14.344;2023-04-24T00:34:46;98377.22;;;9.00;100.00
77112;BME280;66064;50.226;14.344;2023-04-24T00:37:12;98378.13;;;8.92;100.00
77112;BME280;66064;50.226;14.344;2023-04-24T00:39:38;98382.53;;;8.94;99.79
77112;BME280;66064;50.226;14.344;2023-04-24T00:42:04;98378.97;;;9.01;99.98
77112;BME280;66064;50.226;14.344;2023-04-24T00:44:33;98368.38;;;9.01;99.98
77112;BME280;66064;50.226;14.344;2023-04-24T00:47:01;98367.47;;;8.96;99.54
77112;BME280;66064;50.226;14.344;2023-04-24T00:49:27;98374.59;;;8.85;98.73
77112;BME280;66064;50.226;14.344;2023-04-24T00:51:53;98372.81;;;8.81;98.17
77112;BME280;66064;50.226;14.344;2023-04-24T00:54:19;98376.38;;;8.85;98.18
77112;BME280;66064;50.226;14.344;2023-04-24T00:56:45;98367.47;;;8.93;98.98
77112;BME280;66064;50.226;14.344;2023-04-24T00:59:12;98368.31;;;9.10;98.57
77112;BME280;66064;50.226;14.344;2023-04-24T01:01:39;98360.41;;;9.04;98.06
77112;BME280;66064;50.226;14.344;2023-04-24T01:04:09;98355.06;;;9.12;98.19
77112;BME280;66064;50.226;14.344;2023-04-24T01:06:39;98352.41;;;9.13;97.28
77112;BME280;66064;50.226;14.344;2023-04-24T01:09:06;98351.53;;;9.10;97.22
77112;BME280;66064;50.226;14.344;2023-04-24T01:11:36;98356.88;;;8.98;96.65
77112;BME280;66064;50.226;14.344;2023-04-24T01:14:02;98344.53;;;8.88;96.73
77112;BME280;66064;50.226;14.344;2023-04-24T01:16:28;98350.72;;;8.82;96.78
77112;BME280;66064;50.226;14.344;2023-04-24T01:18:55;98351.59;;;8.78;97.00
77112;BME280;66064;50.226;14.344;2023-04-24T01:21:21;98356.94;;;8.73;97.47
77112;BME280;66064;50.226;14.344;2023-04-24T01:23:49;98354.25;;;8.80;97.67
77112;BME280;66064;50.226;14.344;2023-04-24T01:26:17;98346.28;;;8.86;97.54
77112;BME280;66064;50.226;14.344;2023-04-24T01:28:46;98343.66;;;8.84;97.45
77112;BME280;66064;50.226;14.344;2023-04-24T01:31:14;98351.59;;;8.80;97.38
77112;BME280;66064;50.226;14.344;2023-04-24T01:33:41;98343.69;;;8.75;97.23
77112;BME280;66064;50.226;14.344;2023-04-24T01:36:09;98352.50;;;8.80;97.29
77112;BME280;66064;50.226;14.344;2023-04-24T01:38:36;98355.19;;;8.75;96.90
77112;BME280;66064;50.226;14.344;2023-04-24T01:41:02;98355.13;;;8.82;97.50
77112;BME280;66064;50.226;14.344;2023-04-24T01:43:28;98362.22;;;8.84;96.52
77112;BME280;66064;50.226;14.344;2023-04-24T01:45:54;98355.19;;;8.75;97.26
77112;BME280;66064;50.226;14.344;2023-04-24T01:48:20;98366.66;;;8.76;97.89
77112;BME280;66064;50.226;14.344;2023-04-24T01:50:46;98363.09;;;8.80;97.39
77112;BME280;66064;50.226;14.344;2023-04-24T01:53:12;98357.78;;;8.83;97.92
77112;BME280;66064;50.226;14.344;2023-04-24T01:55:38;98365.53;;;9.45;94.60
77112;BME280;66064;50.226;14.344;2023-04-24T01:58:04;98361.81;;;9.80;91.79
77112;BME280;66064;50.226;14.344;2023-04-24T02:00:31;98346.78;;;9.74;92.28
77112;BME280;66064;50.226;14.344;2023-04-24T02:02:57;98362.69;;;9.87;93.16
77112;BME280;66064;50.226;14.344;2023-04-24T02:05:23;98356.50;;;9.86;93.61
77112;BME280;66064;50.226;14.344;2023-04-24T02:07:49;98356.44;;;9.94;93.26
77112;BME280;66064;50.226;14.344;2023-04-24T02:10:15;98352.88;;;9.92;92.85
77112;BME280;66064;50.226;14.344;2023-04-24T02:12:41;98352.00;;;9.93;94.07
77112;BME280;66064;50.226;14.344;2023-04-24T02:15:07;98355.63;;;9.82;93.18
77112;BME280;66064;50.226;14.344;2023-04-24T02:17:33;98340.56;;;9.85;92.95
77112;BME280;66064;50.226;14.344;2023-04-24T02:19:59;98338.78;;;9.83;93.31
77112;BME280;66064;50.226;14.344;2023-04-24T02:22:25;98343.25;;;9.75;93.63
77112;BME280;66064;50.226;14.344;2023-04-24T02:24:51;98336.16;;;9.77;93.64
77112;BME280;66064;50.226;14.344;2023-04-24T02:27:17;98331.75;;;9.75;93.90
77112;BME280;66064;50.226;14.344;2023-04-24T02:29:43;98327.28;;;9.81;93.85
77112;BME280;66064;50.226;14.344;2023-04-24T02:32:09;98321.09;;;9.78;93.98
77112;BME280;66064;50.226;14.344;2023-04-24T02:34:37;98316.66;;;9.78;94.66
77112;BME280;66064;50.226;14.344;2023-04-24T02:37:04;98318.31;;;9.96;94.05
77112;BME280;66064;50.226;14.344;2023-04-24T02:39:29;98311.19;;;10.06;93.43
77112;BME280;66064;50.226;14.344;2023-04-24T02:41:55;98308.44;;;10.13;92.97
77112;BME280;66064;50.226;14.344;2023-04-24T02:44:21;98310.16;;;10.24;92.97
77112;BME280;66064;50.226;14.344;2023-04-24T02:46:48;98317.28;;;10.22;93.67
77112;BME280;66064;50.226;14.344;2023-04-24T02:49:14;98310.31;;;10.02;93.82
77112;BME280;66064;50.226;14.344;2023-04-24T02:51:40;98320.06;;;10.02;94.73
77112;BME280;66064;50.226;14.344;2023-04-24T02:54:08;98328.94;;;9.98;95.62
77112;BME280;66064;50.226;14.344;2023-04-24T02:56:35;98328.03;;;10.05;95.80
77112;BME280;66064;50.226;14.344;2023-04-24T02:59:02;98322.63;;;10.15;94.24
77112;BME280;66064;50.226;14.344;2023-04-24T03:01:29;98320.84;;;10.21;94.07
77112;BME280;66064;50.226;14.344;2023-04-24T03:03:55;98323.50;;;10.22;94.39
77112;BME280;66064;50.226;14.344;2023-04-24T03:06:21;98332.34;;;10.21;94.50
77112;BME280;66064;50.226;14.344;2023-04-24T03:08:47;98332.34;;;10.15;95.20
77112;BME280;66064;50.226;14.344;2023-04-24T03:11:13;98332.41;;;10.09;95.73
77112;BME280;66064;50.226;14.344;2023-04-24T03:13:38;98327.09;;;10.07;96.18
77112;BME280;66064;50.226;14.344;2023-04-24T03:16:05;98337.69;;;10.12;96.05
77112;BME280;66064;50.226;14.344;2023-04-24T03:18:31;98338.56;;;10.19;95.26
77112;BME280;66064;50.226;14.344;2023-04-24T03:20:57;98334.13;;;10.22;94.94
77112;BME280;66064;50.226;14.344;2023-04-24T03:23:23;98331.47;;;10.19;94.75
77112;BME280;66064;50.226;14.344;2023-04-24T03:25:49;98321.75;;;10.13;95.28
77112;BME280;66064;50.226;14.344;2023-04-24T03:28:15;98327.94;;;10.14;95.29
77112;BME280;66064;50.226;14.344;2023-04-24T03:30:41;98329.75;;;10.07;95.69
77112;BME280;66064;50.226;14.344;2023-04-24T03:33:07;98328.94;;;9.98;95.76
77112;BME280;66064;50.226;14.344;2023-04-24T03:35:33;98337.84;;;9.91;96.13
77112;BME280;66064;50.226;14.344;2023-04-24T03:37:59;98336.06;;;9.94;97.10
77112;BME280;66064;50.226;14.344;2023-04-24T03:40:25;98324.53;;;9.92;97.89
77112;BME280;66064;50.226;14.344;2023-04-24T03:42:51;98329.84;;;9.94;97.72
77112;BME280;66064;50.226;14.344;2023-04-24T03:45:17;98333.47;;;9.85;97.58
77112;BME280;66064;50.226;14.344;2023-04-24T03:47:43;98340.56;;;9.85;97.18
77112;BME280;66064;50.226;14.344;2023-04-24T03:50:09;98343.25;;;9.77;97.22
77112;BME280;66064;50.226;14.344;2023-04-24T03:52:35;98334.44;;;9.70;97.68
77112;BME280;66064;50.226;14.344;2023-04-24T03:55:01;98346.78;;;9.74;97.70
77112;BME280;66064;50.226;14.344;2023-04-24T03:57:27;98330.91;;;9.73;97.87
77112;BME280;66064;50.226;14.344;2023-04-24T03:59:53;98339.69;;;9.76;98.03
77112;BME280;66064;50.226;14.344;2023-04-24T04:02:19;98335.28;;;9.75;97.96
77112;BME280;66064;50.226;14.344;2023-04-24T04:04:45;98332.59;;;9.81;98.60
77112;BME280;66064;50.226;14.344;2023-04-24T04:07:11;98341.44;;;9.85;98.45
77112;BME280;66064;50.226;14.344;2023-04-24T04:09:38;98342.34;;;9.81;98.46
77112;BME280;66064;50.226;14.344;2023-04-24T04:12:04;98337.03;;;9.81;98.67
77112;BME280;66064;50.226;14.344;2023-04-24T04:14:30;98333.47;;;9.80;98.44
77112;BME280;66064;50.226;14.344;2023-04-24T04:16:56;98341.47;;;9.77;98.03
77112;BME280;66064;50.226;14.344;2023-04-24T04:19:22;98347.72;;;9.73;98.08
77112;BME280;66064;50.226;14.344;2023-04-24T04:21:48;98334.41;;;9.75;97.94
77112;BME280;66064;50.226;14.344;2023-04-24T04:24:19;98339.69;;;9.79;97.01
77112;BME280;66064;50.226;14.344;2023-04-24T04:26:46;98342.31;;;9.87;97.70
77112;BME280;66064;50.226;14.344;2023-04-24T04:29:13;98330.81;;;9.80;96.86
77112;BME280;66064;50.226;14.344;2023-04-24T04:31:39;98345.88;;;9.86;96.37
77112;BME280;66064;50.226;14.344;2023-04-24T04:34:05;98357.34;;;9.90;96.40
77112;BME280;66064;50.226;14.344;2023-04-24T04:36:33;98354.66;;;9.91;96.42
77112;BME280;66064;50.226;14.344;2023-04-24T04:39:02;98360.91;;;9.89;96.68
77112;BME280;66064;50.226;14.344;2023-04-24T04:41:29;98361.72;;;9.98;96.86
77112;BME280;66064;50.226;14.344;2023-04-24T04:43:55;98365.19;;;10.08;96.24
77112;BME280;66064;50.226;14.344;2023-04-24T04:46:24;98366.03;;;10.13;96.44
77112;BME280;66064;50.226;14.344;2023-04-24T04:48:53;98365.97;;;10.25;95.89
77112;BME280;66064;50.226;14.344;2023-04-24T04:51:19;98370.41;;;10.28;95.56
77112;BME280;66064;50.226;14.344;2023-04-24T04:53:46;98369.50;;;10.32;95.23
77112;BME280;66064;50.226;14.344;2023-04-24T04:56:12;98370.34;;;10.35;95.01
77112;BME280;66064;50.226;14.344;2023-04-24T04:58:38;98367.63;;;10.41;95.12
77112;BME280;66064;50.226;14.344;2023-04-24T05:01:04;98382.56;;;10.58;94.94
77112;BME280;66064;50.226;14.344;2023-04-24T05:03:30;98370.97;;;10.68;94.20
77112;BME280;66064;50.226;14.344;2023-04-24T05:05:57;98368.28;;;10.71;94.14
77112;BME280;66064;50.226;14.344;2023-04-24T05:08:23;98380.56;;;10.84;93.76
77112;BME280;66064;50.226;14.344;2023-04-24T05:10:49;98395.50;;;11.00;93.65
77112;BME280;66064;50.226;14.344;2023-04-24T05:13:15;98397.16;;;11.10;92.71
77112;BME280;66064;50.226;14.344;2023-04-24T05:15:41;98395.31;;;11.15;92.27
77112;BME280;66064;50.226;14.344;2023-04-24T05:18:07;98398.72;;;11.30;92.65
77112;BME280;66064;50.226;14.344;2023-04-24T05:20:33;98396.81;;;11.41;91.12
77112;BME280;66064;50.226;14.344;2023-04-24T05:22:59;98401.19;;;11.46;90.99
77112;BME280;66064;50.226;14.344;2023-04-24T05:25:25;98392.28;;;11.47;90.89
77112;BME280;66064;50.226;14.344;2023-04-24T05:27:51;98391.28;;;11.56;90.19
77112;BME280;66064;50.226;14.344;2023-04-24T05:30:19;98395.59;;;11.68;90.59
77112;BME280;66064;50.226;14.344;2023-04-24T05:32:45;98391.19;;;11.67;90.75
77112;BME280;66064;50.226;14.344;2023-04-24T05:35:11;98391.25;;;11.59;90.92
77112;BME280;66064;50.226;14.344;2023-04-24T05:37:37;98389.63;;;11.49;91.45
77112;BME280;66064;50.226;14.344;2023-04-24T05:40:04;98396.72;;;11.50;91.82
77112;BME280;66064;50.226;14.344;2023-04-24T05:42:31;98396.75;;;11.47;90.93
77112;BME280;66064;50.226;14.344;2023-04-24T05:44:58;98396.75;;;11.47;90.65
77112;BME280;66064;50.226;14.344;2023-04-24T05:47:24;98395.00;;;11.43;91.25
77112;BME280;66064;50.226;14.344;2023-04-24T05:49:51;98410.06;;;11.47;90.58
77112;BME280;66064;50.226;14.344;2023-04-24T05:52:17;98400.31;;;11.44;90.48
77112;BME280;66064;50.226;14.344;2023-04-24T05:54:43;98414.44;;;11.52;89.39
77112;BME280;66064;50.226;14.344;2023-04-24T05:57:09;98403.75;;;11.54;89.71
77112;BME280;66064;50.226;14.344;2023-04-24T05:59:37;98408.06;;;11.64;89.95
77112;BME280;66064;50.226;14.344;2023-04-24T06:02:06;98401.13;;;11.52;90.91
77112;BME280;66064;50.226;14.344;2023-04-24T06:04:32;98416.06;;;11.64;90.99
77112;BME280;66064;50.226;14.344;2023-04-24T06:06:59;98424.91;;;11.68;89.95
77112;BME280;66064;50.226;14.344;2023-04-24T06:09:25;98419.59;;;11.66;89.20
77112;BME280;66064;50.226;14.344;2023-04-24T06:11:51;98417.69;;;11.80;89.23
77112;BME280;66064;50.226;14.344;2023-04-24T06:14:22;98432.66;;;11.89;88.23
77112;BME280;66064;50.226;14.344;2023-04-24T06:16:48;98425.41;;;12.00;88.38
77112;BME280;66064;50.226;14.344;2023-04-24T06:19:14;98426.44;;;11.88;87.83
77112;BME280;66064;50.226;14.344;2023-04-24T06:21:40;98431.00;;;11.80;88.69
77112;BME280;66064;50.226;14.344;2023-04-24T06:24:05;98431.03;;;11.74;89.13
77112;BME280;66064;50.226;14.344;2023-04-24T06:26:32;98440.84;;;11.72;89.22
77112;BME280;66064;50.226;14.344;2023-04-24T06:28:58;98441.69;;;11.74;89.29
77112;BME280;66064;50.226;14.344;2023-04-24T06:31:25;98447.94;;;11.76;89.07
77112;BME280;66064;50.226;14.344;2023-04-24T06:33:51;98444.38;;;11.74;88.25
77112;BME280;66064;50.226;14.344;2023-04-24T06:36:17;98446.13;;;11.75;88.79
77112;BME280;66064;50.226;14.344;2023-04-24T06:38:43;98445.34;;;11.69;89.04
77112;BME280;66064;50.226;14.344;2023-04-24T06:41:10;98451.53;;;11.69;90.03
77112;BME280;66064;50.226;14.344;2023-04-24T06:43:36;98440.84;;;11.72;89.35
77112;BME280;66064;50.226;14.344;2023-04-24T06:46:02;98455.03;;;11.77;88.35
77112;BME280;66064;50.226;14.344;2023-04-24T06:48:29;98453.97;;;11.90;88.42
77112;BME280;66064;50.226;14.344;2023-04-24T06:50:55;98454.91;;;11.86;88.57
77112;BME280;66064;50.226;14.344;2023-04-24T06:53:21;98460.13;;;11.96;87.72
77112;BME280;66064;50.226;14.344;2023-04-24T06:55:47;98453.75;;;12.06;87.78
77112;BME280;66064;50.226;14.344;2023-04-24T06:58:13;98444.66;;;12.22;86.56
77112;BME280;66064;50.226;14.344;2023-04-24T07:00:40;98455.06;;;12.40;86.46
77112;BME280;66064;50.226;14.344;2023-04-24T07:03:05;98456.84;;;12.40;86.24
77112;BME280;66064;50.226;14.344;2023-04-24T07:05:32;98451.44;;;12.44;86.32
77112;BME280;66064;50.226;14.344;2023-04-24T07:08:01;98453.84;;;12.63;84.72
77112;BME280;66064;50.226;14.344;2023-04-24T07:10:27;98441.25;;;12.71;85.32
77112;BME280;66064;50.226;14.344;2023-04-24T07:12:54;98456.09;;;12.87;86.15
77112;BME280;66064;50.226;14.344;2023-04-24T07:15:22;98452.28;;;13.02;83.80
77112;BME280;66064;50.226;14.344;2023-04-24T07:17:49;98460.09;;;13.15;85.13
77112;BME280;66064;50.226;14.344;2023-04-24T07:20:16;98454.75;;;13.15;83.43
77112;BME280;66064;50.226;14.344;2023-04-24T07:22:43;98453.91;;;13.15;84.52
77112;BME280;66064;50.226;14.344;2023-04-24T07:25:09;98447.63;;;13.14;81.06
77112;BME280;66064;50.226;14.344;2023-04-24T07:27:35;98450.88;;;12.82;81.80
77112;BME280;66064;50.226;14.344;2023-04-24T07:30:03;98455.19;;;12.88;82.99
77112;BME280;66064;50.226;14.344;2023-04-24T07:32:29;98454.72;;;12.63;83.17
77112;BME280;66064;50.226;14.344;2023-04-24T07:34:56;98452.75;;;12.76;83.42
77112;BME280;66064;50.226;14.344;2023-04-24T07:37:22;98454.34;;;12.86;83.81
77112;BME280;66064;50.226;14.344;2023-04-24T07:39:48;98460.88;;;12.67;84.28
77112;BME280;66064;50.226;14.344;2023-04-24T07:42:14;98471.41;;;12.76;83.61
77112;BME280;66064;50.226;14.344;2023-04-24T07:44:41;98462.72;;;12.63;83.46
77112;BME280;66064;50.226;14.344;2023-04-24T07:47:06;98466.28;;;12.64;83.49
77112;BME280;66064;50.226;14.344;2023-04-24T07:49:33;98473.22;;;12.74;84.64
77112;BME280;66064;50.226;14.344;2023-04-24T07:52:00;98466.44;;;12.51;83.62
77112;BME280;66064;50.226;14.344;2023-04-24T07:54:28;98467.47;;;12.44;84.39
77112;BME280;66064;50.226;14.344;2023-04-24T07:56:55;98459.47;;;12.44;85.17
77112;BME280;66064;50.226;14.344;2023-04-24T07:59:22;98471.84;;;12.48;84.84
77112;BME280;66064;50.226;14.344;2023-04-24T08:01:48;98479.63;;;12.64;85.98
77112;BME280;66064;50.226;14.344;2023-04-24T08:04:14;98468.38;;;12.43;86.17
77112;BME280;66064;50.226;14.344;2023-04-24T08:06:40;98471.50;;;12.70;85.68
77112;BME280;66064;50.226;14.344;2023-04-24T08:09:07;98474.41;;;12.56;84.66
77112;BME280;66064;50.226;14.344;2023-04-24T08:11:32;98466.59;;;12.42;83.80
77112;BME280;66064;50.226;14.344;2023-04-24T08:13:58;98467.47;;;12.43;85.18
77112;BME280;66064;50.226;14.344;2023-04-24T08:16:24;98478.09;;;12.47;84.41
77112;BME280;66064;50.226;14.344;2023-04-24T08:18:51;98471.91;;;12.45;85.11
77112;BME280;66064;50.226;14.344;2023-04-24T08:21:17;98469.97;;;12.53;85.63
77112;BME280;66064;50.226;14.344;2023-04-24T08:23:45;98464.13;;;12.85;85.39
77112;BME280;66064;50.226;14.344;2023-04-24T08:26:12;98465.84;;;12.91;85.42
77112;BME280;66064;50.226;14.344;2023-04-24T08:28:38;98465.91;;;12.85;83.60
77112;BME280;66064;50.226;14.344;2023-04-24T08:31:05;98465.75;;;12.97;84.03
77112;BME280;66064;50.226;14.344;2023-04-24T08:33:31;98464.72;;;13.04;83.81
77112;BME280;66064;50.226;14.344;2023-04-24T08:36:03;98467.44;;;13.00;84.29
77112;BME280;66064;50.226;14.344;2023-04-24T08:38:31;98467.28;;;13.10;82.39
77112;BME280;66064;50.226;14.344;2023-04-24T08:41:01;98474.41;;;13.11;81.86
77112;BME280;66064;50.226;14.344;2023-04-24T08:43:27;98471.00;;;13.00;82.70
77112;BME280;66064;50.226;14.344;2023-04-24T08:45:55;98476.56;;;12.88;82.68
77112;BME280;66064;50.226;14.344;2023-04-24T08:48:22;98475.72;;;12.84;84.54
77112;BME280;66064;50.226;14.344;2023-04-24T08:50:50;98491.06;;;12.72;83.65
77112;BME280;66064;50.226;14.344;2023-04-24T08:53:18;98491.06;;;12.72;82.74
77112;BME280;66064;50.226;14.344;2023-04-24T08:55:46;98485.47;;;12.87;82.34
77112;BME280;66064;50.226;14.344;2023-04-24T08:58:13;98491.81;;;12.81;82.00
77112;BME280;66064;50.226;14.344;2023-04-24T09:00:39;98479.66;;;12.62;82.81
77112;BME280;66064;50.226;14.344;2023-04-24T09:03:09;98491.97;;;12.71;82.79
77112;BME280;66064;50.226;14.344;2023-04-24T09:05:36;98487.53;;;12.68;83.04
77112;BME280;66064;50.226;14.344;2023-04-24T09:08:04;98494.53;;;12.77;82.69
77112;BME280;66064;50.226;14.344;2023-04-24T09:10:30;98494.63;;;12.71;84.15
77112;BME280;66064;50.226;14.344;2023-04-24T09:12:58;98490.56;;;13.02;83.37
77112;BME280;66064;50.226;14.344;2023-04-24T09:15:27;98492.25;;;13.09;81.41
77112;BME280;66064;50.226;14.344;2023-04-24T09:17:53;98490.78;;;13.42;81.31
77112;BME280;66064;50.226;14.344;2023-04-24T09:20:19;98485.13;;;13.59;80.16
77112;BME280;66064;50.226;14.344;2023-04-24T09:22:46;98483.25;;;13.64;80.13
77112;BME280;66064;50.226;14.344;2023-04-24T09:25:12;98483.38;;;13.58;78.38
77112;BME280;66064;50.226;14.344;2023-04-24T09:27:43;98487.22;;;13.89;79.98
77112;BME280;66064;50.226;14.344;2023-04-24T09:30:10;98473.47;;;14.08;77.65
77112;BME280;66064;50.226;14.344;2023-04-24T09:32:37;98471.84;;;14.42;76.96
77112;BME280;66064;50.226;14.344;2023-04-24T09:35:13;98471.69;;;15.22;76.04
77112;BME280;66064;50.226;14.344;2023-04-24T09:37:42;98470.81;;;15.22;71.67
77112;BME280;66064;50.226;14.344;2023-04-24T09:40:16;98465.97;;;15.70;71.76
77112;BME280;66064;50.226;14.344;2023-04-24T09:42:54;98469.25;;;16.10;70.89
77112;BME280;66064;50.226;14.344;2023-04-24T09:45:21;98449.06;;;16.86;67.88
77112;BME280;66064;50.226;14.344;2023-04-24T09:47:51;98452.69;;;17.11;66.38
77112;BME280;66064;50.226;14.344;2023-04-24T09:50:19;98442.88;;;17.36;64.62
77112;BME280;66064;50.226;14.344;2023-04-24T09:52:55;98447.38;;;16.54;65.74
77112;BME280;66064;50.226;14.344;2023-04-24T09:55:21;98446.06;;;16.68;64.97
77112;BME280;66064;50.226;14.344;2023-04-24T09:57:55;98444.63;;;17.64;62.79
77112;BME280;66064;50.226;14.344;2023-04-24T10:00:23;98446.38;;;16.86;63.57
77112;BME280;66064;50.226;14.344;2023-04-24T10:03:01;98445.78;;;16.19;67.09
77112;BME280;66064;50.226;14.344;2023-04-24T10:05:32;98435.44;;;17.43;64.84
77112;BME280;66064;50.226;14.344;2023-04-24T10:08:06;98434.53;;;19.49;59.04
77112;BME280;66064;50.226;14.344;2023-04-24T10:10:34;98429.94;;;20.12;54.33
77112;BME280;66064;50.226;14.344;2023-04-24T10:13:01;98433.50;;;20.32;52.92
77112;BME280;66064;50.226;14.344;2023-04-24T10:15:27;98429.97;;;19.72;55.69
77112;BME280;66064;50.226;14.344;2023-04-24T10:17:53;98414.03;;;19.86;55.82
77112;BME280;66064;50.226;14.344;2023-04-24T10:20:27;98420.34;;;20.05;50.99
77112;BME280;66064;50.226;14.344;2023-04-24T10:22:58;98427.25;;;19.51;50.44
77112;BME280;66064;50.226;14.344;2023-04-24T10:25:27;98420.75;;;19.15;49.88
77112;BME280;66064;50.226;14.344;2023-04-24T10:27:54;98413.28;;;22.17;48.06
77112;BME280;66064;50.226;14.344;2023-04-24T10:30:30;98402.47;;;21.83;46.99
77112;BME280;66064;50.226;14.344;2023-04-24T10:32:56;98416.31;;;21.94;48.75
77112;BME280;66064;50.226;14.344;2023-04-24T10:35:22;98412.53;;;21.63;47.26
77112;BME280;66064;50.226;14.344;2023-04-24T10:37:59;98426.53;;;22.06;46.14
77112;BME280;66064;50.226;14.344;2023-04-24T10:40:31;98420.06;;;20.11;51.71
77112;BME280;66064;50.226;14.344;2023-04-24T10:42:58;98424.63;;;19.90;52.74
77112;BME280;66064;50.226;14.344;2023-04-24T10:45:24;98420.91;;;19.93;52.98
77112;BME280;66064;50.226;14.344;2023-04-24T10:50:22;98414.19;;;19.63;50.60
77112;BME280;66064;50.226;14.344;2023-04-24T10:52:49;98419.47;;;19.02;53.10
77112;BME280;66064;50.226;14.344;2023-04-24T10:55:39;98413.25;;;19.00;53.99
77112;BME280;66064;50.226;14.344;2023-04-24T10:58:05;98415.72;;;19.06;50.34
77112;BME280;66064;50.226;14.344;2023-04-24T11:00:31;98407.78;;;20.04;50.69
77112;BME280;66064;50.226;14.344;2023-04-24T11:02:57;98409.38;;;19.69;47.10
77112;BME280;66064;50.226;14.344;2023-04-24T11:06:16;98399.16;;;19.96;46.85
77112;BME280;66064;50.226;14.344;2023-04-24T11:08:43;98396.66;;;20.49;46.48
77112;BME280;66064;50.226;14.344;2023-04-24T11:11:14;98399.56;;;21.36;44.09
77112;BME280;66064;50.226;14.344;2023-04-24T11:16:21;98396.59;;;23.65;38.95
77112;BME280;66064;50.226;14.344;2023-04-24T11:18:57;98395.34;;;22.79;42.81
77112;BME280;66064;50.226;14.344;2023-04-24T11:21:27;98386.44;;;22.28;40.29
77112;BME280;66064;50.226;14.344;2023-04-24T11:23:57;98399.06;;;20.74;41.34
77112;BME280;66064;50.226;14.344;2023-04-24T11:26:23;98399.94;;;20.75;42.31
77112;BME280;66064;50.226;14.344;2023-04-24T11:29:06;98401.34;;;21.18;41.59
77112;BME280;66064;50.226;14.344;2023-04-24T11:31:40;98395.38;;;20.94;45.58
77112;BME280;66064;50.226;14.344;2023-04-24T11:34:14;98413.44;;;19.17;45.90
77112;BME280;66064;50.226;14.344;2023-04-24T11:36:44;98405.34;;;18.30;49.90
77112;BME280;66064;50.226;14.344;2023-04-24T11:39:12;98416.00;;;18.54;50.23
77112;BME280;66064;50.226;14.344;2023-04-24T11:41:38;98407.03;;;18.54;50.32
77112;BME280;66064;50.226;14.344;2023-04-24T11:44:06;98407.81;;;18.12;52.87
77112;BME280;66064;50.226;14.344;2023-04-24T11:46:32;98405.94;;;18.36;50.74
77112;BME280;66064;50.226;14.344;2023-04-24T11:48:59;98407.31;;;18.48;51.54
77112;BME280;66064;50.226;14.344;2023-04-24T11:51:26;98403.19;;;18.38;53.79
77112;BME280;66064;50.226;14.344;2023-04-24T11:53:56;98405.09;;;18.12;52.32
77112;BME280;66064;50.226;14.344;2023-04-24T11:56:23;98401.44;;;18.60;52.83
77112;BME280;66064;50.226;14.344;2023-04-24T11:58:53;98396.03;;;19.04;53.66
77112;BME280;66064;50.226;14.344;2023-04-24T12:01:21;98405.50;;;18.70;52.25
77112;BME280;66064;50.226;14.344;2023-04-24T12:03:49;98401.00;;;18.26;54.06
77112;BME280;66064;50.226;14.344;2023-04-24T12:06:16;98402.41;;;17.66;55.64
77112;BME280;66064;50.226;14.344;2023-04-24T12:08:46;98402.16;;;18.65;54.73
77112;BME280;66064;50.226;14.344;2023-04-24T12:11:15;98405.09;;;17.89;52.21
77112;BME280;66064;50.226;14.344;2023-04-24T12:13:41;98410.78;;;17.81;56.55
77112;BME280;66064;50.226;14.344;2023-04-24T12:16:07;98404.94;;;18.17;55.89
77112;BME280;66064;50.226;14.344;2023-04-24T12:18:33;98404.75;;;18.22;57.15
77112;BME280;66064;50.226;14.344;2023-04-24T12:21:18;98397.34;;;19.36;49.90
77112;BME280;66064;50.226;14.344;2023-04-24T12:23:44;98406.78;;;19.26;51.94
77112;BME280;66064;50.226;14.344;2023-04-24T12:26:18;98397.25;;;19.17;52.06
77112;BME280;66064;50.226;14.344;2023-04-24T12:28:47;98390.97;;;19.79;50.77
77112;BME280;66064;50.226;14.344;2023-04-24T12:31:15;98401.22;;;18.66;49.48
77112;BME280;66064;50.226;14.344;2023-04-24T12:33:42;98415.16;;;18.31;48.86
77112;BME280;66064;50.226;14.344;2023-04-24T12:36:12;98401.38;;;18.16;49.84
77112;BME280;66064;50.226;14.344;2023-04-24T12:38:39;98400.63;;;18.35;51.97
77112;BME280;66064;50.226;14.344;2023-04-24T12:41:13;98407.53;;;18.87;48.88
77112;BME280;66064;50.226;14.344;2023-04-24T12:43:51;98413.63;;;18.24;50.74
77112;BME280;66064;50.226;14.344;2023-04-24T12:46:17;98405.81;;;18.17;49.72
77112;BME280;66064;50.226;14.344;2023-04-24T12:48:43;98405.91;;;17.41;51.65
77112;BME280;66064;50.226;14.344;2023-04-24T12:51:09;98403.84;;;17.49;50.57
77112;BME280;66064;50.226;14.344;2023-04-24T12:53:35;98401.50;;;17.65;52.72
77112;BME280;66064;50.226;14.344;2023-04-24T12:56:00;98403.41;;;17.62;54.77
77112;BME280;66064;50.226;14.344;2023-04-24T12:58:27;98412.50;;;17.58;53.52